McLane, Pennsylvania
Current Conditions -  °F | °C
As of 4:51 AM on Monday 22 Dec 2014 (Local Time) from KERI Reporting Station
Clear Clear  
Wind Chill: 27°   Ceiling: Unl
Heat Index: 27°   Visibility: 10mi
Dew Point: 19°   Wind: 0mph
Humidity: 72%   Direction: NA
Pressure: 30.15"   Gusts: NA
Location:  41.9793°N, 80.1405°W
Report Text: KERI 220951Z 00000KT 10SM CLR M03/M07 A3015 RMK AO2 SLP218 T10281072
Loading
Personal Weather Stations






























Interactive Weather Map New forecast layout! Learn more

10-Day Weather Forecast

Advertisements
Track Severe Weather on mobile